Time;durP1;ratioP1;P1;durP2;ratioP2;P2;SDS_P1;SDS_P2;PMS_P1;PMS_P2;Temp;Humidity;BMP_temperature;BMP_pressure;BME280_temperature;BME280_humidity;BME280_pressure;Samples;Min_cycle;Max_cycle;Signal;HPM_P1;HPM_P2
2021/10/19 00:02:01;;;;;;;;;;;;;;;6.37;81.79;97295.03;5074450;28;20391;-77
2021/10/19 00:04:27;;;;;;;;;;;;;;;6.36;82.09;97292.59;5074792;28;19956;-77
2021/10/19 00:06:53;;;;;;;;;;;;;;;6.34;82.00;97297.97;5074643;28;20469;-77
2021/10/19 00:09:19;;;;;;;;;;;;;;;6.32;82.11;97299.94;5074479;28;19946;-77
2021/10/19 00:11:45;;;;;;;;;;;;;;;6.29;81.98;97302.88;5074481;28;19955;-77
2021/10/19 00:14:11;;;;;;;;;;;;;;;6.27;81.81;97292.63;5073034;28;20337;-77
2021/10/19 00:16:37;;;;;;;;;;;;;;;6.20;81.72;97289.06;5074349;28;19992;-77
2021/10/19 00:19:04;;;;;;;;;;;;;;;6.18;81.50;97278.00;5074122;28;19957;-77
2021/10/19 00:21:30;;;;;;;;;;;;;;;6.16;81.72;97284.38;5074575;28;19973;-76
2021/10/19 00:23:56;;;;;;;;;;;;;;;6.14;81.97;97274.13;5074263;28;19966;-76
2021/10/19 00:26:22;;;;;;;;;;;;;;;6.12;82.50;97276.09;5073969;28;19959;-76
2021/10/19 00:28:48;;;;;;;;;;;;;;;6.12;82.86;97272.66;5074153;28;20001;-76
2021/10/19 00:31:14;;;;;;;;;;;;;;;6.13;84.35;97271.69;5074469;28;19960;-76
2021/10/19 00:33:40;;;;;;;;;;;;;;;6.14;85.84;97273.31;5073891;28;20005;-76
2021/10/19 00:36:06;;;;;;;;;;;;;;;6.16;87.74;97272.16;5074164;28;19949;-76
2021/10/19 00:38:32;;;;;;;;;;;;;;;6.21;89.38;97267.25;5074152;28;20012;-76
2021/10/19 00:40:57;;;;;;;;;;;;;;;6.25;88.46;97272.94;5074022;28;19955;-76
2021/10/19 00:43:27;;;;;;;;;;;;;;;6.27;87.92;97276.97;5073801;28;19956;-76
2021/10/19 00:45:53;;;;;;;;;;;;;;;6.33;87.96;97270.28;5073788;28;20405;-77
2021/10/19 00:48:21;;;;;;;;;;;;;;;6.34;87.71;97255.47;5073866;28;19950;-76
2021/10/19 00:50:47;;;;;;;;;;;;;;;6.35;87.45;97273.53;5073560;28;19960;-76
2021/10/19 00:53:13;;;;;;;;;;;;;;;6.35;87.32;97272.72;5073711;28;19978;-77
2021/10/19 00:55:40;;;;;;;;;;;;;;;6.35;86.94;97276.16;5073423;28;19968;-76
2021/10/19 00:58:06;;;;;;;;;;;;;;;6.34;86.72;97273.69;5073733;28;20325;-76
2021/10/19 01:00:32;;;;;;;;;;;;;;;6.33;86.27;97266.88;5073683;28;20329;-76
2021/10/19 01:02:58;;;;;;;;;;;;;;;6.32;86.38;97265.25;5073789;28;19976;-76
2021/10/19 01:05:24;;;;;;;;;;;;;;;6.30;86.06;97262.84;5073719;28;20434;-76
2021/10/19 01:07:50;;;;;;;;;;;;;;;6.28;86.08;97263.00;5073780;28;19958;-77
2021/10/19 01:10:16;;;;;;;;;;;;;;;6.29;86.05;97248.16;5073323;28;19958;-76
2021/10/19 01:12:42;;;;;;;;;;;;;;;6.28;85.83;97246.56;5073742;28;19967;-76
2021/10/19 01:15:12;;;;;;;;;;;;;;;6.25;85.16;97247.69;5073724;28;19945;-76
2021/10/19 01:17:45;;;;;;;;;;;;;;;6.22;84.67;97235.03;5073696;28;19948;-76
2021/10/19 01:20:30;;;;;;;;;;;;;;;6.22;84.47;97227.22;5073238;28;19968;-77
2021/10/19 01:22:57;;;;;;;;;;;;;;;6.22;84.56;97229.81;5067370;28;19953;-76
2021/10/19 01:25:27;;;;;;;;;;;;;;;6.21;84.77;97232.56;5080095;28;20064;-75
2021/10/19 01:27:55;;;;;;;;;;;;;;;6.21;84.91;97233.38;5080399;28;19953;-74
2021/10/19 01:30:21;;;;;;;;;;;;;;;6.21;85.08;97237.78;5080038;28;19967;-74
2021/10/19 01:32:47;;;;;;;;;;;;;;;6.21;85.35;97232.56;5079987;28;20344;-75
2021/10/19 01:35:13;;;;;;;;;;;;;;;6.20;85.55;97236.97;5080111;28;20006;-75
2021/10/19 01:37:40;;;;;;;;;;;;;;;6.20;85.28;97236.97;5079883;28;20433;-75
2021/10/19 01:40:07;;;;;;;;;;;;;;;6.20;85.77;97249.19;5080109;28;20399;-74
2021/10/19 01:42:34;;;;;;;;;;;;;;;6.21;86.17;97243.81;5080175;28;19953;-75
2021/10/19 01:45:00;;;;;;;;;;;;;;;6.23;86.10;97241.84;5079952;28;19973;-74
2021/10/19 01:47:27;;;;;;;;;;;;;;;6.25;86.49;97234.66;5079743;28;20403;-75
2021/10/19 01:49:53;;;;;;;;;;;;;;;6.29;86.79;97227.34;5079955;28;19957;-74
2021/10/19 01:52:19;;;;;;;;;;;;;;;6.34;87.22;97229.41;5079457;28;19965;-74
2021/10/19 01:54:45;;;;;;;;;;;;;;;6.36;88.20;97227.44;5080068;28;19960;-74
2021/10/19 01:57:10;;;;;;;;;;;;;;;6.38;89.15;97241.91;5079619;28;20368;-74
2021/10/19 01:59:36;;;;;;;;;;;;;;;6.39;89.90;97240.94;5079957;28;20006;-74
2021/10/19 02:02:02;;;;;;;;;;;;;;;6.42;89.76;97237.19;5078578;28;20043;-74
2021/10/19 02:04:28;;;;;;;;;;;;;;;6.44;89.38;97243.03;5079681;28;19948;-74
2021/10/19 02:06:54;;;;;;;;;;;;;;;6.49;89.61;97243.34;5079773;28;19996;-74
2021/10/19 02:09:20;;;;;;;;;;;;;;;6.53;89.16;97236.81;5079702;28;20012;-75
2021/10/19 02:11:46;;;;;;;;;;;;;;;6.57;89.13;97238.06;5079730;28;20002;-74
2021/10/19 02:14:11;;;;;;;;;;;;;;;6.63;89.16;97233.97;5079572;28;20029;-74
2021/10/19 02:16:37;;;;;;;;;;;;;;;6.65;89.50;97227.59;5079582;28;20000;-74
2021/10/19 02:19:03;;;;;;;;;;;;;;;6.69;89.57;97228.06;5079611;28;20062;-76
2021/10/19 02:21:29;;;;;;;;;;;;;;;6.72;89.44;97232.94;5079470;28;19963;-75
2021/10/19 02:23:55;;;;;;;;;;;;;;;6.74;89.24;97233.56;5079723;28;20360;-75
2021/10/19 02:26:22;;;;;;;;;;;;;;;6.75;89.67;97226.56;5078356;28;19967;-75
2021/10/19 02:28:47;;;;;;;;;;;;;;;6.78;89.50;97215.78;5079590;28;19956;-75
2021/10/19 02:31:13;;;;;;;;;;;;;;;6.79;90.05;97223.44;5079503;28;19991;-76
2021/10/19 02:33:39;;;;;;;;;;;;;;;6.81;89.81;97218.84;5077705;28;20024;-75
2021/10/19 02:36:05;;;;;;;;;;;;;;;6.84;89.90;97222.91;5076081;28;20481;-74
2021/10/19 02:38:31;;;;;;;;;;;;;;;6.87;89.78;97217.34;5076447;28;19967;-77
2021/10/19 02:40:57;;;;;;;;;;;;;;;6.91;89.63;97210.81;5076009;28;20021;-77
2021/10/19 02:43:23;;;;;;;;;;;;;;;6.94;89.30;97215.66;5076034;28;19956;-77
2021/10/19 02:45:49;;;;;;;;;;;;;;;6.97;89.33;97217.91;5076157;28;19963;-77
2021/10/19 02:48:14;;;;;;;;;;;;;;;6.99;89.92;97213.34;5076120;28;19958;-77
2021/10/19 02:50:40;;;;;;;;;;;;;;;7.00;89.01;97212.34;5076350;28;19949;-77
2021/10/19 02:53:06;;;;;;;;;;;;;;;7.05;89.25;97206.59;5074624;28;19996;-77
2021/10/19 02:55:32;;;;;;;;;;;;;;;7.07;89.11;97208.03;5075924;28;20004;-78
2021/10/19 02:57:58;;;;;;;;;;;;;;;7.13;88.86;97205.72;5075851;28;20439;-77
2021/10/19 03:00:24;;;;;;;;;;;;;;;7.15;88.97;97201.13;5075773;28;19983;-78
2021/10/19 03:02:50;;;;;;;;;;;;;;;7.17;89.01;97202.56;5076114;28;19960;-77
2021/10/19 03:05:16;;;;;;;;;;;;;;;7.20;89.29;97202.22;5075555;28;19979;-77
2021/10/19 03:07:42;;;;;;;;;;;;;;;7.23;89.23;97203.66;5075885;28;19990;-77
2021/10/19 03:10:08;;;;;;;;;;;;;;;7.24;89.19;97206.09;5075828;28;19991;-77
2021/10/19 03:12:34;;;;;;;;;;;;;;;7.26;89.00;97206.72;5076041;28;19959;-77
2021/10/19 03:15:00;;;;;;;;;;;;;;;7.28;88.87;97214.38;5075215;28;20365;-77
2021/10/19 03:17:25;;;;;;;;;;;;;;;7.29;89.17;97208.19;5075406;28;19955;-77
2021/10/19 03:19:51;;;;;;;;;;;;;;;7.30;89.04;97209.78;5075469;28;20003;-77
2021/10/19 03:22:17;;;;;;;;;;;;;;;7.28;89.14;97217.78;5065457;28;19963;-77
2021/10/19 03:24:43;;;;;;;;;;;;;;;7.29;88.71;97219.41;5074277;28;19978;-77
2021/10/19 03:27:09;;;;;;;;;;;;;;;7.28;88.78;97217.78;5075369;28;20011;-77
2021/10/19 03:29:35;;;;;;;;;;;;;;;7.31;88.79;97214.03;5075509;28;20067;-77
2021/10/19 03:32:01;;;;;;;;;;;;;;;7.32;89.03;97215.63;5075525;28;20384;-78
2021/10/19 03:34:27;;;;;;;;;;;;;;;7.33;88.92;97219.88;5075102;28;19974;-77
2021/10/19 03:36:53;;;;;;;;;;;;;;;7.35;89.04;97215.28;5075321;28;20427;-76
2021/10/19 03:39:18;;;;;;;;;;;;;;;7.36;89.42;97218.72;5075124;28;19991;-76
2021/10/19 03:41:44;;;;;;;;;;;;;;;7.37;89.01;97213.31;5075274;28;20324;-77
2021/10/19 03:44:10;;;;;;;;;;;;;;;7.35;89.72;97217.91;5074474;28;20044;-78
2021/10/19 03:46:36;;;;;;;;;;;;;;;7.35;89.24;97220.50;5075206;28;20064;-77
2021/10/19 03:49:02;;;;;;;;;;;;;;;7.35;89.46;97214.47;5074924;28;19959;-77
2021/10/19 03:51:28;;;;;;;;;;;;;;;7.35;89.36;97224.91;5074770;28;20411;-77
2021/10/19 03:53:54;;;;;;;;;;;;;;;7.37;89.20;97226.38;5074495;28;20038;-77
2021/10/19 03:56:20;;;;;;;;;;;;;;;7.38;88.67;97224.56;5074729;28;19953;-77
2021/10/19 03:58:46;;;;;;;;;;;;;;;7.38;88.71;97230.59;5074622;28;19997;-77
2021/10/19 04:01:12;;;;;;;;;;;;;;;7.37;89.12;97231.59;5074534;28;19994;-77
2021/10/19 04:03:38;;;;;;;;;;;;;;;7.36;89.36;97237.78;5074726;28;20005;-77
2021/10/19 04:06:04;;;;;;;;;;;;;;;7.35;89.22;97228.34;5074667;28;20468;-77
2021/10/19 04:08:30;;;;;;;;;;;;;;;7.35;89.50;97224.91;5074411;28;20408;-77
2021/10/19 04:10:57;;;;;;;;;;;;;;;7.36;89.36;97223.94;5074460;28;19955;-77
2021/10/19 04:13:23;;;;;;;;;;;;;;;7.38;89.54;97227.16;5074448;28;20343;-77
2021/10/19 04:15:49;;;;;;;;;;;;;;;7.40;89.48;97227.81;5074261;28;19956;-77
2021/10/19 04:18:14;;;;;;;;;;;;;;;7.40;89.43;97223.38;5074406;28;20479;-76
2021/10/19 04:20:40;;;;;;;;;;;;;;;7.42;89.44;97218.81;5074173;28;20000;-76
2021/10/19 04:23:06;;;;;;;;;;;;;;;7.46;89.97;97224.47;5074340;28;19962;-76
2021/10/19 04:25:32;;;;;;;;;;;;;;;7.46;89.35;97217.47;5074311;28;19964;-75
2021/10/19 04:27:58;;;;;;;;;;;;;;;7.50;89.45;97212.69;5074198;28;20350;-77
2021/10/19 04:30:24;;;;;;;;;;;;;;;7.56;88.43;97217.19;5073984;28;20067;-76
2021/10/19 04:32:50;;;;;;;;;;;;;;;7.64;88.49;97224.13;5074276;28;20008;-77
2021/10/19 04:35:16;;;;;;;;;;;;;;;7.68;88.67;97220.16;5060282;28;19985;-76
2021/10/19 04:37:42;;;;;;;;;;;;;;;7.68;89.17;97228.78;5074122;28;20427;-76
2021/10/19 04:40:08;;;;;;;;;;;;;;;7.69;89.97;97229.63;5074066;28;20035;-75
2021/10/19 04:42:37;;;;;;;;;;;;;;;7.71;89.68;97227.66;5073968;28;20293;-75
2021/10/19 04:45:04;;;;;;;;;;;;;;;7.73;89.59;97238.72;5074017;28;19954;-76
2021/10/19 04:47:30;;;;;;;;;;;;;;;7.76;89.64;97246.19;5074189;28;20335;-76
2021/10/19 04:49:58;;;;;;;;;;;;;;;7.79;89.79;97251.06;5074337;28;19958;-76
2021/10/19 04:52:25;;;;;;;;;;;;;;;7.82;90.30;97261.13;5073431;28;19968;-77
2021/10/19 04:54:51;;;;;;;;;;;;;;;7.84;90.05;97256.53;5073662;28;20338;-76
2021/10/19 04:57:17;;;;;;;;;;;;;;;7.86;90.16;97245.91;5072749;28;19955;-76
2021/10/19 04:59:43;;;;;;;;;;;;;;;7.88;90.74;97242.13;5073746;28;20005;-76
2021/10/19 05:02:09;;;;;;;;;;;;;;;7.88;90.44;97241.31;5073707;28;19983;-76
2021/10/19 05:04:35;;;;;;;;;;;;;;;7.88;89.34;97233.50;5073644;28;19966;-77
2021/10/19 05:07:01;;;;;;;;;;;;;;;7.89;89.08;97235.09;5073726;28;20079;-76
2021/10/19 05:09:27;;;;;;;;;;;;;;;7.89;89.19;97230.69;5073777;28;19959;-76
2021/10/19 05:11:53;;;;;;;;;;;;;;;7.89;88.47;97233.28;5073584;28;19961;-76
2021/10/19 05:14:18;;;;;;;;;;;;;;;7.90;88.49;97234.13;5073420;28;19974;-76
2021/10/19 05:16:44;;;;;;;;;;;;;;;7.90;89.61;97237.53;5073868;28;19956;-76
2021/10/19 05:19:10;;;;;;;;;;;;;;;7.90;89.24;97252.41;5073675;28;19967;-75
2021/10/19 05:21:36;;;;;;;;;;;;;;;7.89;90.11;97253.38;5073512;28;19962;-75
2021/10/19 05:24:02;;;;;;;;;;;;;;;7.88;90.19;97252.56;5073735;28;19955;-74
2021/10/19 05:26:28;;;;;;;;;;;;;;;7.88;91.11;97241.31;5073300;28;19970;-74
2021/10/19 05:28:54;;;;;;;;;;;;;;;7.87;90.73;97229.25;5073851;28;19995;-74
2021/10/19 05:31:20;;;;;;;;;;;;;;;7.87;90.81;97230.09;5072122;28;20415;-74
2021/10/19 05:33:46;;;;;;;;;;;;;;;7.89;91.17;97232.50;5073612;28;20063;-75
2021/10/19 05:36:12;;;;;;;;;;;;;;;7.90;91.24;97239.34;5073168;28;19957;-76
2021/10/19 05:38:38;;;;;;;;;;;;;;;7.90;89.57;97229.72;5073394;28;20385;-76
2021/10/19 05:41:04;;;;;;;;;;;;;;;7.90;89.84;97229.72;5073312;28;19961;-76
2021/10/19 05:43:30;;;;;;;;;;;;;;;7.92;91.16;97237.38;5074132;28;19959;-76
2021/10/19 05:45:56;;;;;;;;;;;;;;;7.95;91.39;97236.19;5072207;28;19958;-76
2021/10/19 05:48:22;;;;;;;;;;;;;;;7.97;91.32;97227.16;5073446;28;19953;-76
2021/10/19 05:50:48;;;;;;;;;;;;;;;7.98;91.37;97220.97;5073122;28;19953;-75
2021/10/19 05:53:13;;;;;;;;;;;;;;;8.01;91.70;97220.59;5072890;28;19971;-76
2021/10/19 05:55:40;;;;;;;;;;;;;;;8.03;91.58;97218.59;5073290;28;19967;-76
2021/10/19 05:58:05;;;;;;;;;;;;;;;8.05;91.78;97231.50;5073184;28;19952;-76
2021/10/19 06:00:32;;;;;;;;;;;;;;;8.07;91.82;97224.28;5072949;28;20100;-76
2021/10/19 06:02:58;;;;;;;;;;;;;;;8.09;91.94;97217.88;5073203;28;20347;-76
2021/10/19 06:05:24;;;;;;;;;;;;;;;8.11;91.91;97222.94;5073267;28;20055;-76
2021/10/19 06:07:53;;;;;;;;;;;;;;;8.13;91.65;97232.19;5074418;28;20053;-76
2021/10/19 06:10:21;;;;;;;;;;;;;;;8.14;89.86;97225.16;5076570;28;19961;-76
2021/10/19 06:12:48;;;;;;;;;;;;;;;8.17;90.73;97227.44;5076905;28;19958;-76
2021/10/19 06:15:16;;;;;;;;;;;;;;;8.20;91.29;97241.91;5076734;28;19975;-76
2021/10/19 06:17:42;;;;;;;;;;;;;;;8.22;91.61;97245.16;5076810;28;19958;-76
2021/10/19 06:20:08;;;;;;;;;;;;;;;8.23;91.33;97247.59;5076868;28;20410;-77
2021/10/19 06:22:34;;;;;;;;;;;;;;;8.25;91.65;97258.69;5076501;28;20339;-77
2021/10/19 06:25:00;;;;;;;;;;;;;;;8.27;91.70;97256.69;5077193;28;19960;-77
2021/10/19 06:27:26;;;;;;;;;;;;;;;8.29;91.90;97251.25;5076314;28;20411;-76
2021/10/19 06:29:52;;;;;;;;;;;;;;;8.30;92.07;97255.50;5076278;28;20035;-76
2021/10/19 06:32:17;;;;;;;;;;;;;;;8.31;92.25;97250.09;5076496;28;20029;-76
2021/10/19 06:34:43;;;;;;;;;;;;;;;8.32;92.04;97241.25;5076198;28;19973;-77
2021/10/19 06:37:10;;;;;;;;;;;;;;;8.34;91.94;97247.13;5076420;28;19955;-76
2021/10/19 06:39:36;;;;;;;;;;;;;;;8.36;91.89;97243.50;5076238;28;19956;-76
2021/10/19 06:42:02;;;;;;;;;;;;;;;8.39;91.89;97245.75;5076554;28;20431;-75
2021/10/19 06:44:29;;;;;;;;;;;;;;;8.39;92.94;97243.94;5076596;28;19965;-75
2021/10/19 06:46:55;;;;;;;;;;;;;;;8.40;92.45;97237.75;5076018;28;19967;-74
2021/10/19 06:49:20;;;;;;;;;;;;;;;8.41;92.59;97255.06;5074981;28;19968;-74
2021/10/19 06:51:46;;;;;;;;;;;;;;;8.42;92.44;97259.31;5076133;28;20052;-76
2021/10/19 06:54:13;;;;;;;;;;;;;;;8.45;92.43;97258.94;5076080;28;19977;-75
2021/10/19 06:56:38;;;;;;;;;;;;;;;8.47;92.67;97249.09;5075981;28;20328;-75
2021/10/19 06:59:04;;;;;;;;;;;;;;;8.49;92.44;97243.69;5076093;28;20039;-75
2021/10/19 07:01:30;;;;;;;;;;;;;;;8.51;92.46;97242.50;5075803;28;19953;-75
2021/10/19 07:03:56;;;;;;;;;;;;;;;8.53;92.25;97250.97;5075901;28;19959;-75
2021/10/19 07:06:24;;;;;;;;;;;;;;;8.57;92.31;97250.59;5075715;28;20425;-76
2021/10/19 07:08:50;;;;;;;;;;;;;;;8.58;92.58;97250.41;5075861;28;19957;-75
2021/10/19 07:11:16;;;;;;;;;;;;;;;8.60;92.32;97256.28;5075562;28;20403;-76
2021/10/19 07:13:42;;;;;;;;;;;;;;;8.63;92.56;97255.91;5075575;28;20022;-76
2021/10/19 07:16:08;;;;;;;;;;;;;;;8.65;92.66;97256.53;5075606;28;20474;-76
2021/10/19 07:18:34;;;;;;;;;;;;;;;8.68;92.50;97248.31;5075453;28;19950;-75
2021/10/19 07:21:00;;;;;;;;;;;;;;;8.71;92.55;97258.41;5075071;28;19978;-75
2021/10/19 07:23:26;;;;;;;;;;;;;;;8.74;93.09;97249.38;5075459;28;20420;-76
2021/10/19 07:25:52;;;;;;;;;;;;;;;8.77;92.69;97261.28;5075383;28;19960;-75
2021/10/19 07:28:18;;;;;;;;;;;;;;;8.79;92.48;97265.31;5075309;28;19958;-75
2021/10/19 07:30:44;;;;;;;;;;;;;;;8.83;92.32;97265.75;5075372;28;19952;-76
2021/10/19 07:33:10;;;;;;;;;;;;;;;8.86;92.70;97268.81;5075378;28;20419;-75
2021/10/19 07:35:36;;;;;;;;;;;;;;;8.87;92.62;97265.19;5074922;28;19997;-75
2021/10/19 07:38:02;;;;;;;;;;;;;;;8.90;92.21;97256.16;5075450;28;19963;-75
2021/10/19 07:40:28;;;;;;;;;;;;;;;8.93;92.37;97268.88;5075073;28;19960;-75
2021/10/19 07:42:55;;;;;;;;;;;;;;;8.96;92.85;97268.50;5075057;28;19967;-75
2021/10/19 07:45:23;;;;;;;;;;;;;;;8.98;92.65;97276.97;5074860;28;19951;-75
2021/10/19 07:47:49;;;;;;;;;;;;;;;9.00;92.88;97271.56;5074786;28;19957;-76
2021/10/19 07:50:16;;;;;;;;;;;;;;;9.02;93.46;97280.81;5074963;28;19961;-75
2021/10/19 07:52:43;;;;;;;;;;;;;;;9.02;92.54;97275.59;5074641;28;19976;-75
2021/10/19 07:55:09;;;;;;;;;;;;;;;9.03;91.97;97279.84;5074885;28;19976;-75
2021/10/19 07:57:42;;;;;;;;;;;;;;;9.07;92.37;97293.34;5074606;28;20410;-75
2021/10/19 08:00:08;;;;;;;;;;;;;;;9.07;92.35;97294.19;5074725;28;20399;-75
2021/10/19 08:02:34;;;;;;;;;;;;;;;9.11;92.93;97302.44;5074572;28;19957;-75
2021/10/19 08:05:00;;;;;;;;;;;;;;;9.13;92.45;97301.28;5073453;28;19962;-75
2021/10/19 08:07:26;;;;;;;;;;;;;;;9.15;92.52;97295.84;5074393;28;20019;-74
2021/10/19 08:09:51;;;;;;;;;;;;;;;9.19;92.60;97296.28;5073415;28;19996;-74
2021/10/19 08:12:17;;;;;;;;;;;;;;;9.22;92.36;97295.88;5074331;28;19951;-75
2021/10/19 08:14:43;;;;;;;;;;;;;;;9.25;92.42;97296.34;5074363;28;19969;-75
2021/10/19 08:17:09;;;;;;;;;;;;;;;9.28;92.48;97293.34;5074150;28;19958;-75
2021/10/19 08:19:35;;;;;;;;;;;;;;;9.31;91.96;97292.16;5074203;28;19951;-74
2021/10/19 08:22:01;;;;;;;;;;;;;;;9.32;93.31;97299.84;5074305;28;20340;-74
2021/10/19 08:24:27;;;;;;;;;;;;;;;9.35;92.69;97303.88;5074061;28;19970;-74
2021/10/19 08:26:53;;;;;;;;;;;;;;;9.37;92.75;97316.78;5074376;28;20043;-74
2021/10/19 08:29:19;;;;;;;;;;;;;;;9.36;92.33;97308.09;5074182;28;20431;-76
2021/10/19 08:31:45;;;;;;;;;;;;;;;9.35;92.02;97306.50;5072879;28;19972;-74
2021/10/19 08:34:11;;;;;;;;;;;;;;;9.37;92.27;97307.13;5073772;28;19971;-75
2021/10/19 08:36:37;;;;;;;;;;;;;;;9.39;92.50;97312.19;5074352;28;19963;-74
2021/10/19 08:39:03;;;;;;;;;;;;;;;9.39;91.54;97312.97;5073895;28;19963;-75
2021/10/19 08:41:30;;;;;;;;;;;;;;;9.44;92.07;97315.03;5072969;28;20383;-75
2021/10/19 08:43:56;;;;;;;;;;;;;;;9.47;91.64;97312.84;5074097;28;19959;-75
2021/10/19 08:46:22;;;;;;;;;;;;;;;9.50;92.25;97303.78;5073874;28;20375;-75
2021/10/19 08:48:48;;;;;;;;;;;;;;;9.53;91.92;97303.41;5073959;28;19960;-75
2021/10/19 08:51:15;;;;;;;;;;;;;;;9.55;92.23;97304.84;5074018;28;19954;-75
2021/10/19 08:53:42;;;;;;;;;;;;;;;9.58;91.85;97319.38;5073602;28;19972;-75
2021/10/19 08:56:08;;;;;;;;;;;;;;;9.61;91.18;97324.22;5073903;28;19958;-74
2021/10/19 08:58:34;;;;;;;;;;;;;;;9.63;90.67;97327.44;5073827;28;19966;-75
2021/10/19 09:01:01;;;;;;;;;;;;;;;9.65;90.58;97333.31;5073540;28;19958;-75
2021/10/19 09:03:27;;;;;;;;;;;;;;;9.66;89.88;97326.25;5073831;28;19962;-74
2021/10/19 09:05:53;;;;;;;;;;;;;;;9.67;89.69;97320.03;5073504;28;19953;-75
2021/10/19 09:08:19;;;;;;;;;;;;;;;9.68;90.30;97316.41;5074206;28;19959;-75
2021/10/19 09:10:45;;;;;;;;;;;;;;;9.72;89.91;97315.03;5073615;28;20049;-75
2021/10/19 09:13:12;;;;;;;;;;;;;;;9.74;89.98;97313.84;5073646;28;20332;-76
2021/10/19 09:15:43;;;;;;;;;;;;;;;9.78;90.84;97309.03;5073519;28;19974;-75
2021/10/19 09:18:11;;;;;;;;;;;;;;;9.81;91.32;97313.09;5074162;28;19947;-75
2021/10/19 09:20:39;;;;;;;;;;;;;;;9.83;91.09;97304.03;5073407;28;20438;-76
2021/10/19 09:23:06;;;;;;;;;;;;;;;9.84;90.82;97295.16;5073534;28;20329;-75
2021/10/19 09:25:34;;;;;;;;;;;;;;;9.87;91.73;97304.44;5073415;28;19964;-75
2021/10/19 09:28:01;;;;;;;;;;;;;;;9.87;92.13;97300.03;5073345;28;19951;-75
2021/10/19 09:30:46;;;;;;;;;;;;;;;9.89;93.09;97290.16;5073276;28;20327;-74
2021/10/19 09:33:14;;;;;;;;;;;;;;;9.90;93.89;97273.44;5073572;28;19965;-76
2021/10/19 09:35:40;;;;;;;;;;;;;;;9.93;94.83;97280.09;5073221;28;19974;-74
2021/10/19 09:38:08;;;;;;;;;;;;;;;9.96;96.10;97267.44;5073323;28;19961;-74
2021/10/19 09:40:39;;;;;;;;;;;;;;;10.11;100.00;97269.91;5073110;28;20408;-74
2021/10/19 09:43:06;;;;;;;;;;;;;;;10.44;100.00;97278.97;5074873;28;19958;-74
2021/10/19 09:45:35;;;;;;;;;;;;;;;10.72;100.00;97274.41;5077428;28;19963;-74
2021/10/19 09:48:02;;;;;;;;;;;;;;;10.97;94.84;97264.16;5077310;28;19975;-74
2021/10/19 09:50:29;;;;;;;;;;;;;;;11.04;95.56;97279.91;5077753;28;19962;-73
2021/10/19 09:52:56;;;;;;;;;;;;;;;11.27;94.84;97281.34;5077260;28;19978;-72
2021/10/19 09:55:23;;;;;;;;;;;;;;;11.48;91.64;97290.84;5077231;28;19985;-74
2021/10/19 09:57:53;;;;;;;;;;;;;;;11.41;90.38;97292.69;5077010;28;19958;-74
2021/10/19 10:00:19;;;;;;;;;;;;;;;11.29;90.61;97295.91;5077382;28;19954;-74
2021/10/19 10:02:46;;;;;;;;;;;;;;;11.22;91.49;97284.59;5077091;28;19952;-74
2021/10/19 10:05:12;;;;;;;;;;;;;;;11.16;92.15;97282.75;5076846;28;19972;-74
2021/10/19 10:07:40;;;;;;;;;;;;;;;11.09;93.87;97263.59;5077037;28;19956;-74
2021/10/19 10:10:06;;;;;;;;;;;;;;;10.99;93.62;97261.34;5076883;28;19959;-74
2021/10/19 10:12:33;;;;;;;;;;;;;;;10.95;94.60;97255.69;5076990;28;19952;-74
2021/10/19 10:14:59;;;;;;;;;;;;;;;10.94;94.17;97251.44;5076658;28;19970;-74
2021/10/19 10:17:25;;;;;;;;;;;;;;;10.93;94.53;97259.53;5076666;28;19956;-74
2021/10/19 10:19:51;;;;;;;;;;;;;;;10.89;95.19;97256.47;5076697;28;19957;-74
2021/10/19 10:22:18;;;;;;;;;;;;;;;10.87;95.46;97263.75;5076719;28;19965;-74
2021/10/19 10:24:45;;;;;;;;;;;;;;;10.86;95.95;97261.34;5076418;28;19956;-74
2021/10/19 10:27:15;;;;;;;;;;;;;;;10.85;95.81;97254.47;5076518;28;19956;-74
2021/10/19 10:29:42;;;;;;;;;;;;;;;10.83;97.15;97257.28;5076356;28;19960;-74
2021/10/19 10:32:38;;;;;;;;;;;;;;;10.82;96.32;97254.88;5075229;28;19952;-74
2021/10/19 10:35:05;;;;;;;;;;;;;;;10.80;97.01;97246.38;5071616;28;19962;-74
2021/10/19 10:37:50;;;;;;;;;;;;;;;10.82;97.44;97241.75;5076477;28;19957;-75
2021/10/19 10:40:28;;;;;;;;;;;;;;;10.84;97.27;97234.50;5076185;28;19955;-75
2021/10/19 10:42:54;;;;;;;;;;;;;;;10.91;96.68;97251.03;5066765;28;19964;-74
2021/10/19 10:45:29;;;;;;;;;;;;;;;10.95;97.68;97242.56;5076291;28;19960;-74
2021/10/19 10:47:57;;;;;;;;;;;;;;;10.99;97.35;97239.53;5076000;28;19959;-74
2021/10/19 10:50:24;;;;;;;;;;;;;;;11.03;96.94;97231.06;5076192;28;19967;-74
2021/10/19 10:53:03;;;;;;;;;;;;;;;11.04;97.92;97224.78;5075991;28;20420;-74
2021/10/19 10:55:40;;;;;;;;;;;;;;;11.05;96.34;97233.50;5074753;28;20001;-74
2021/10/19 10:58:06;;;;;;;;;;;;;;;11.06;95.27;97232.47;5075800;28;19951;-74
2021/10/19 11:00:32;;;;;;;;;;;;;;;11.06;97.16;97221.97;5075991;28;19958;-74
2021/10/19 11:03:15;;;;;;;;;;;;;;;11.09;97.17;97226.84;5075835;28;19963;-75
2021/10/19 11:05:57;;;;;;;;;;;;;;;11.15;95.69;97218.16;5075999;28;19950;-74
2021/10/19 11:08:26;;;;;;;;;;;;;;;11.19;95.33;97211.47;5066053;28;19954;-74
2021/10/19 11:11:01;;;;;;;;;;;;;;;11.19;94.39;97224.59;5075591;28;19954;-74
2021/10/19 11:13:27;;;;;;;;;;;;;;;11.18;94.87;97215.91;5075873;28;19950;-74
2021/10/19 11:15:53;;;;;;;;;;;;;;;11.20;94.49;97212.28;5075669;28;19977;-74
2021/10/19 11:18:20;;;;;;;;;;;;;;;11.25;95.36;97201.97;5075410;28;19955;-75
2021/10/19 11:20:51;;;;;;;;;;;;;;;11.26;93.91;97212.28;5075453;28;19953;-75
2021/10/19 11:23:17;;;;;;;;;;;;;;;11.29;94.82;97211.06;5074289;28;19977;-74
2021/10/19 11:25:43;;;;;;;;;;;;;;;11.26;93.80;97200.97;5075590;28;20463;-74
2021/10/19 11:28:08;;;;;;;;;;;;;;;11.24;94.32;97198.56;5075482;28;19964;-75
2021/10/19 11:30:35;;;;;;;;;;;;;;;11.27;97.02;97197.34;5075714;28;19959;-74
2021/10/19 11:33:01;;;;;;;;;;;;;;;11.32;96.91;97187.03;5075096;28;20325;-74
2021/10/19 11:35:27;;;;;;;;;;;;;;;11.38;96.12;97191.44;5075181;28;19972;-74
2021/10/19 11:37:53;;;;;;;;;;;;;;;11.43;97.24;97189.03;5075761;28;20370;-74
2021/10/19 11:40:19;;;;;;;;;;;;;;;11.47;96.84;97192.88;5075209;28;19949;-74
2021/10/19 11:42:45;;;;;;;;;;;;;;;11.51;96.51;97186.19;5075261;28;19962;-74
2021/10/19 11:45:12;;;;;;;;;;;;;;;11.55;96.09;97190.03;5075203;28;19946;-74
2021/10/19 11:47:58;;;;;;;;;;;;;;;11.62;95.90;97178.69;5074712;28;20448;-75
2021/10/19 11:50:26;;;;;;;;;;;;;;;11.68;96.06;97180.50;5075538;28;20322;-74
2021/10/19 11:52:52;;;;;;;;;;;;;;;11.76;96.97;97190.78;5074483;28;19989;-75
2021/10/19 11:55:18;;;;;;;;;;;;;;;11.82;95.42;97186.50;5074800;28;20336;-74
2021/10/19 11:57:49;;;;;;;;;;;;;;;11.87;95.23;97186.72;5074725;28;19983;-75
2021/10/19 12:00:15;;;;;;;;;;;;;;;11.94;93.90;97183.06;5075274;28;19949;-74
2021/10/19 12:02:51;;;;;;;;;;;;;;;11.97;94.07;97182.66;5074862;28;19960;-74
2021/10/19 12:05:18;;;;;;;;;;;;;;;12.04;93.26;97180.00;5074313;28;19977;-75
2021/10/19 12:07:48;;;;;;;;;;;;;;;12.08;94.00;97183.81;5074906;28;19963;-75
2021/10/19 12:10:14;;;;;;;;;;;;;;;12.14;93.80;97169.03;5074653;28;19972;-75
2021/10/19 12:12:58;;;;;;;;;;;;;;;12.19;91.98;97169.19;5074549;28;19986;-75
2021/10/19 12:15:26;;;;;;;;;;;;;;;12.26;91.56;97169.97;5074186;28;19966;-74
2021/10/19 12:17:56;;;;;;;;;;;;;;;12.33;91.59;97173.38;5074721;28;19960;-75
2021/10/19 12:20:22;;;;;;;;;;;;;;;12.44;92.16;97166.63;5074091;28;19966;-75
2021/10/19 12:22:48;;;;;;;;;;;;;;;12.56;90.83;97151.78;5074383;28;19952;-76
2021/10/19 12:25:14;;;;;;;;;;;;;;;12.65;90.49;97152.34;5074068;28;20371;-75
2021/10/19 12:27:40;;;;;;;;;;;;;;;12.77;91.41;97157.72;5074370;28;20333;-75
2021/10/19 12:30:16;;;;;;;;;;;;;;;12.88;90.96;97143.84;5074096;28;20316;-75
2021/10/19 12:32:43;;;;;;;;;;;;;;;13.02;91.08;97151.63;5072708;28;19959;-75
2021/10/19 12:35:10;;;;;;;;;;;;;;;13.10;90.86;97146.09;5074074;28;19983;-75
2021/10/19 12:37:38;;;;;;;;;;;;;;;13.18;88.44;97136.09;5074150;28;19958;-75
2021/10/19 12:40:05;;;;;;;;;;;;;;;13.27;89.11;97139.28;5074186;28;20434;-75
2021/10/19 12:42:31;;;;;;;;;;;;;;;13.36;86.39;97127.44;5074077;28;19960;-75
2021/10/19 12:44:57;;;;;;;;;;;;;;;13.45;87.68;97132.44;5073984;28;19957;-74
2021/10/19 12:47:23;;;;;;;;;;;;;;;13.52;87.25;97126.06;5073973;28;20057;-75
2021/10/19 12:49:49;;;;;;;;;;;;;;;13.60;87.15;97132.88;5073737;28;19957;-76
2021/10/19 12:52:15;;;;;;;;;;;;;;;13.66;86.33;97131.19;5073984;28;19958;-75
2021/10/19 12:54:41;;;;;;;;;;;;;;;13.68;85.49;97122.03;5074162;28;19984;-75